Time;durP1;ratioP1;P1;durP2;ratioP2;P2;SDS_P1;SDS_P2;PMS_P1;PMS_P2;Temp;Humidity;BMP_temperature;BMP_pressure;BME280_temperature;BME280_humidity;BME280_pressure;Samples;Min_cycle;Max_cycle;Signal;HPM_P1;HPM_P2
2023/10/12 00:01:57;;;;;;;17.27;2.67;;;14.10;99.90;;;;;;5079038;28;20051;-69
2023/10/12 00:04:43;;;;;;;11.35;2.50;;;14.10;99.90;;;;;;5114675;28;20113;-69
2023/10/12 00:09:38;;;;;;;14.52;2.85;;;14.10;99.90;;;;;;5114107;28;20054;-68
2023/10/12 00:12:08;;;;;;;13.77;3.20;;;14.10;99.90;;;;;;5079788;28;20044;-69
2023/10/12 00:14:35;;;;;;;11.60;2.45;;;14.20;99.90;;;;;;5096069;28;20069;-69
2023/10/12 00:17:00;;;;;;;11.60;2.90;;;14.20;99.90;;;;;;5079501;28;20096;-69
2023/10/12 00:19:27;;;;;;;18.25;2.97;;;14.10;99.90;;;;;;5079553;28;20055;-69
2023/10/12 00:22:00;;;;;;;8.50;2.65;;;14.20;99.90;;;;;;5113948;28;20050;-69
2023/10/12 00:24:27;;;;;;;9.70;2.50;;;14.20;99.90;;;;;;5114313;28;20048;-69
2023/10/12 00:26:53;;;;;;;13.75;3.42;;;14.20;99.90;;;;;;5095577;28;20035;-69
2023/10/12 00:29:19;;;;;;;15.77;3.53;;;14.20;99.90;;;;;;5114175;28;20443;-69
2023/10/12 00:31:47;;;;;;;15.80;2.78;;;14.20;99.90;;;;;;5095504;28;20051;-69
2023/10/12 00:34:14;;;;;;;15.98;2.97;;;14.20;99.90;;;;;;5096064;28;20047;-70
2023/10/12 00:36:41;;;;;;;11.35;2.72;;;14.20;99.90;;;;;;5095146;28;20065;-70
2023/10/12 00:39:10;;;;;;;11.90;3.15;;;14.20;99.90;;;;;;5095933;28;20043;-69
2023/10/12 00:41:37;;;;;;;12.30;2.90;;;14.20;99.90;;;;;;5095430;28;20079;-69
2023/10/12 00:44:10;;;;;;;17.75;3.28;;;14.20;99.90;;;;;;5113850;28;20055;-69
2023/10/12 00:51:51;;;;;;;10.77;2.97;;;14.10;99.90;;;;;;5095186;28;20043;-69
2023/10/12 00:54:41;;;;;;;8.93;2.50;;;14.10;99.90;;;;;;5095732;28;20052;-70
2023/10/12 00:57:09;;;;;;;8.82;3.00;;;14.10;99.90;;;;;;5095576;28;20540;-69
2023/10/12 00:59:38;;;;;;;12.32;3.10;;;14.00;99.90;;;;;;5095612;28;20051;-77
2023/10/12 01:02:08;;;;;;;13.10;3.10;;;14.00;99.90;;;;;;5078748;28;20052;-70
2023/10/12 01:04:35;;;;;;;13.35;3.13;;;14.00;99.90;;;;;;5095618;28;20456;-70
2023/10/12 01:07:01;;;;;;;13.05;3.08;;;14.00;99.90;;;;;;5095283;28;20039;-69
2023/10/12 01:09:39;;;;;;;19.42;3.58;;;14.00;99.90;;;;;;5095210;28;20044;-69
2023/10/12 01:12:14;;;;;;;19.67;3.22;;;14.00;99.90;;;;;;5095434;28;20048;-69
2023/10/12 01:14:45;;;;;;;13.82;2.80;;;14.00;99.90;;;;;;5095142;28;20055;-80
2023/10/12 01:17:23;;;;;;;12.40;2.85;;;14.00;99.90;;;;;;5095592;28;20123;-70
2023/10/12 01:19:51;;;;;;;13.40;2.97;;;14.00;99.90;;;;;;5095428;28;20485;-69
2023/10/12 01:22:25;;;;;;;15.13;3.50;;;14.00;99.90;;;;;;5116799;28;20051;-69
2023/10/12 01:27:20;;;;;;;15.05;3.17;;;13.90;99.90;;;;;;5095029;28;19926;-70
2023/10/12 01:29:46;;;;;;;19.17;3.05;;;13.90;99.90;;;;;;5112561;28;20070;-70
2023/10/12 01:34:38;;;;;;;14.63;2.72;;;13.80;99.90;;;;;;5078250;28;20051;-69
2023/10/12 01:37:20;;;;;;;16.35;2.78;;;13.80;99.90;;;;;;5112957;28;20123;-70
2023/10/12 01:40:43;;;;;;;12.40;2.65;;;13.70;99.90;;;;;;5079645;28;20059;-70
2023/10/12 01:42:49;;;;;;;16.10;2.63;;;13.70;99.90;;;;;;5087284;28;20053;-71
2023/10/12 01:47:52;;;;;;;14.57;3.15;;;13.70;99.90;;;;;;5112330;28;20493;-70
2023/10/12 01:50:18;;;;;;;13.63;3.03;;;13.70;99.90;;;;;;5094635;28;20477;-69
2023/10/12 01:52:46;;;;;;;12.32;3.35;;;13.70;99.90;;;;;;5112314;28;20047;-79
2023/10/12 01:55:23;;;;;;;13.80;3.00;;;13.70;99.90;;;;;;5095020;28;20135;-69
2023/10/12 01:57:52;;;;;;;11.73;2.38;;;13.70;99.90;;;;;;5079530;28;20081;-70
2023/10/12 02:00:25;;;;;;;13.85;2.40;;;13.70;99.90;;;;;;5095008;28;20036;-73
2023/10/12 02:03:01;;;;;;;7.78;2.30;;;13.70;99.90;;;;;;5094122;28;20481;-70
2023/10/12 02:05:30;;;;;;;15.07;2.83;;;13.70;99.90;;;;;;5112722;28;20050;-68
2023/10/12 02:07:57;;;;;;;11.35;3.08;;;13.70;99.90;;;;;;5094265;28;20048;-69
2023/10/12 02:10:25;;;;;;;11.60;2.58;;;13.60;99.90;;;;;;5112554;28;20105;-69
2023/10/12 02:12:55;;;;;;;12.80;2.50;;;13.60;99.90;;;;;;5094477;28;20087;-69
2023/10/12 02:15:24;;;;;;;10.75;2.60;;;13.60;99.90;;;;;;5078173;28;20122;-69
2023/10/12 02:17:51;;;;;;;11.15;2.20;;;13.60;99.90;;;;;;5094694;28;20130;-70
2023/10/12 02:20:18;;;;;;;7.78;2.50;;;13.60;99.90;;;;;;5094579;28;20044;-68
2023/10/12 02:22:52;;;;;;;16.20;3.15;;;13.60;99.90;;;;;;5094713;28;20393;-70
2023/10/12 02:25:18;;;;;;;11.23;2.10;;;13.50;99.90;;;;;;5095504;28;20431;-71
2023/10/12 02:27:54;;;;;;;15.05;2.45;;;13.50;99.90;;;;;;5098731;28;20054;-70
2023/10/12 02:30:28;;;;;;;9.25;2.25;;;13.50;99.90;;;;;;5098106;28;20481;-70
2023/10/12 02:33:07;;;;;;;12.15;2.30;;;13.50;99.90;;;;;;5115983;28;20047;-70
2023/10/12 02:35:44;;;;;;;12.45;3.22;;;13.40;99.90;;;;;;5098435;28;20083;-69
2023/10/12 02:38:15;;;;;;;10.30;2.80;;;13.40;99.90;;;;;;5081089;28;20061;-70
2023/10/12 02:40:44;;;;;;;10.48;2.63;;;13.40;99.90;;;;;;5099235;28;20443;-70
2023/10/12 02:43:11;;;;;;;11.07;2.88;;;13.40;99.90;;;;;;5097929;28;20058;-69
2023/10/12 02:45:41;;;;;;;10.15;2.95;;;13.40;99.90;;;;;;5097392;28;20105;-69
2023/10/12 02:48:13;;;;;;;12.65;2.60;;;13.40;99.90;;;;;;5115825;28;20051;-68
2023/10/12 02:50:57;;;;;;;9.95;2.60;;;13.30;99.90;;;;;;5098967;28;20075;-68
2023/10/12 02:53:30;;;;;;;13.45;2.45;;;13.30;99.90;;;;;;5097710;28;20059;-69
2023/10/12 02:55:58;;;;;;;8.60;2.33;;;13.30;99.90;;;;;;5097679;28;20055;-71
2023/10/12 02:58:26;;;;;;;10.77;2.63;;;13.30;99.90;;;;;;5097996;28;20082;-69
2023/10/12 03:00:55;;;;;;;18.40;3.38;;;13.30;99.90;;;;;;5115801;28;20036;-77
2023/10/12 03:03:36;;;;;;;13.82;2.70;;;13.30;99.90;;;;;;5097810;28;20046;-70
2023/10/12 03:06:07;;;;;;;13.68;2.67;;;13.30;99.90;;;;;;5080364;28;20093;-71
2023/10/12 03:08:46;;;;;;;19.10;3.25;;;13.20;99.90;;;;;;5115859;28;20549;-69
2023/10/12 03:11:20;;;;;;;10.43;2.90;;;13.20;99.90;;;;;;5097436;28;20043;-69
2023/10/12 03:14:16;;;;;;;12.30;2.60;;;13.20;99.90;;;;;;5049910;28;20039;-69
2023/10/12 03:16:43;;;;;;;11.60;2.78;;;13.20;99.90;;;;;;5084804;28;20377;-69
2023/10/12 03:21:47;;;;;;;12.77;2.55;;;13.20;99.90;;;;;;5115722;28;20044;-70
2023/10/12 03:24:17;;;;;;;13.70;2.65;;;13.10;99.90;;;;;;5097119;28;20161;-71
2023/10/12 03:29:28;;;;;;;14.82;2.97;;;13.10;99.90;;;;;;5097604;28;20048;-70
2023/10/12 03:31:56;;;;;;;16.80;3.30;;;13.10;99.90;;;;;;5097299;28;20048;-69
2023/10/12 03:37:04;;;;;;;13.43;2.72;;;13.10;99.90;;;;;;5080353;28;20106;-76
2023/10/12 03:39:33;;;;;;;11.63;2.67;;;13.00;99.90;;;;;;5115274;28;20542;-70
2023/10/12 03:42:12;;;;;;;11.35;2.28;;;13.00;99.90;;;;;;5080128;28;20048;-80
2023/10/12 03:47:15;;;;;;;13.80;2.25;;;13.00;99.90;;;;;;5096427;28;20059;-74
2023/10/12 03:49:57;;;;;;;15.00;2.75;;;12.90;99.90;;;;;;5081494;28;20439;-69
2023/10/12 03:52:40;;;;;;;11.15;2.50;;;12.90;99.90;;;;;;5079445;28;20070;-70
2023/10/12 03:57:50;;;;;;;13.57;3.08;;;12.90;99.90;;;;;;5114777;28;20393;-70
2023/10/12 04:05:18;;;;;;;15.50;2.80;;;12.90;99.90;;;;;;5114395;28;20051;-70
2023/10/12 04:13:09;;;;;;;13.63;2.88;;;12.80;99.90;;;;;;5096566;28;19945;-76
2023/10/12 04:18:27;;;;;;;;;;;12.80;99.90;;;;;;5096414;28;20054;-70
2023/10/12 04:20:56;;;;;;;12.93;2.83;;;12.80;99.90;;;;;;5096489;28;19923;-70
2023/10/12 04:28:55;;;;;;;9.50;2.60;;;12.80;99.90;;;;;;5096389;28;19927;-70
2023/10/12 04:34:08;;;;;;;15.95;2.80;;;12.70;99.90;;;;;;5096220;28;20100;-70
2023/10/12 04:36:44;;;;;;;15.18;2.90;;;12.70;99.90;;;;;;5079287;28;20485;-71
2023/10/12 04:47:06;;;;;;;11.40;2.50;;;12.60;99.90;;;;;;5100493;28;20051;-70
2023/10/12 04:54:31;;;;;;;14.85;3.13;;;12.60;99.90;;;;;;5113497;28;20047;-70
2023/10/12 04:57:11;;;;;;;12.02;2.63;;;12.60;99.90;;;;;;5113789;28;20043;-70
2023/10/12 04:59:50;;;;;;;10.75;2.47;;;12.50;99.90;;;;;;5078743;28;20052;-71
2023/10/12 05:02:38;;;;;;;10.07;2.60;;;12.50;99.90;;;;;;5095551;28;20138;-71
2023/10/12 05:07:53;;;;;;;12.52;2.50;;;12.50;99.90;;;;;;5113172;28;20048;-71
2023/10/12 05:10:26;;;;;;;7.72;2.30;;;12.50;99.90;;;;;;5094979;28;20082;-71
2023/10/12 05:12:53;;;;;;;13.25;2.22;;;12.50;99.90;;;;;;5078711;28;20047;-71
2023/10/12 05:15:20;;;;;;;12.65;2.60;;;12.40;99.90;;;;;;5113036;28;20086;-71
2023/10/12 05:17:46;;;;;;;11.68;2.20;;;12.40;99.90;;;;;;5095314;28;20050;-71
2023/10/12 05:20:12;;;;;;;13.63;3.53;;;12.40;99.90;;;;;;5113252;28;20047;-75
2023/10/12 05:22:38;;;;;;;11.30;2.47;;;12.40;99.90;;;;;;5095103;28;20042;-71
2023/10/12 05:25:04;;;;;;;7.80;2.50;;;12.30;99.90;;;;;;5095387;28;20047;-71
2023/10/12 05:27:38;;;;;;;9.65;2.45;;;12.30;99.90;;;;;;5094575;28;20051;-70
2023/10/12 05:30:16;;;;;;;8.50;2.40;;;12.30;99.90;;;;;;5095220;28;20051;-70
2023/10/12 05:32:48;;;;;;;11.98;2.53;;;12.30;99.90;;;;;;5095495;28;20043;-69
2023/10/12 05:35:16;;;;;;;13.70;2.80;;;12.20;99.90;;;;;;5095151;28;20051;-71
2023/10/12 05:37:49;;;;;;;6.85;2.05;;;12.20;99.90;;;;;;5095097;28;20047;-70
2023/10/12 05:40:16;;;;;;;9.75;2.53;;;12.20;99.90;;;;;;5094886;28;20055;-72
2023/10/12 05:42:46;;;;;;;11.75;2.60;;;12.20;99.90;;;;;;5095075;28;20503;-69
2023/10/12 05:45:22;;;;;;;11.18;2.25;;;12.10;99.90;;;;;;5112914;28;20055;-72
2023/10/12 05:47:52;;;;;;;9.57;2.40;;;12.10;99.90;;;;;;5078202;28;20043;-71
2023/10/12 05:50:23;;;;;;;10.93;2.50;;;12.10;99.90;;;;;;5112688;28;20382;-72
2023/10/12 05:52:52;;;;;;;14.77;2.42;;;12.00;99.90;;;;;;5113010;28;20050;-71
2023/10/12 05:55:21;;;;;;;12.75;2.70;;;12.00;99.90;;;;;;5077966;28;20047;-77
2023/10/12 05:57:50;;;;;;;10.35;2.75;;;12.00;99.90;;;;;;5094775;28;20043;-70
2023/10/12 06:00:35;;;;;;;7.43;2.22;;;12.00;99.90;;;;;;5078864;28;20050;-71
2023/10/12 06:03:03;;;;;;;12.05;2.13;;;11.90;99.90;;;;;;5098686;28;20055;-71
2023/10/12 06:05:29;;;;;;;12.15;3.30;;;11.90;99.90;;;;;;5098492;28;20036;-70
2023/10/12 06:08:00;;;;;;;12.30;2.58;;;11.90;99.90;;;;;;5098865;28;20148;-70
2023/10/12 06:10:29;;;;;;;16.73;3.10;;;11.90;99.90;;;;;;5081728;28;20140;-71
2023/10/12 06:12:58;;;;;;;15.85;3.10;;;11.90;99.90;;;;;;5116732;28;20096;-71
2023/10/12 06:15:28;;;;;;;14.20;2.55;;;11.80;99.90;;;;;;5098668;28;20042;-71
2023/10/12 06:17:55;;;;;;;8.82;2.80;;;11.80;99.90;;;;;;5099348;28;20058;-71
2023/10/12 06:20:36;;;;;;;14.57;3.38;;;11.80;99.90;;;;;;5098470;28;20043;-79
2023/10/12 06:23:08;;;;;;;13.88;2.90;;;11.80;99.90;;;;;;5066947;28;20051;-70
2023/10/12 06:25:37;;;;;;;10.18;2.33;;;11.90;99.90;;;;;;5082371;28;20497;-70
2023/10/12 06:28:06;;;;;;;11.95;2.42;;;11.80;99.90;;;;;;5098680;28;20056;-71
2023/10/12 06:30:34;;;;;;;13.82;3.08;;;11.90;99.90;;;;;;5098063;28;20131;-74
2023/10/12 06:33:02;;;;;;;9.32;2.58;;;11.90;99.90;;;;;;5098853;28;20047;-70
2023/10/12 06:35:33;;;;;;;9.95;2.85;;;11.90;99.90;;;;;;5097854;28;20054;-70
2023/10/12 06:38:15;;;;;;;8.00;2.60;;;12.00;99.90;;;;;;5098464;28;20043;-70
2023/10/12 06:40:48;;;;;;;9.15;2.58;;;12.00;99.90;;;;;;5083685;28;20385;-71
2023/10/12 06:45:51;;;;;;;9.27;2.42;;;12.00;99.90;;;;;;5097790;28;20557;-71
2023/10/12 06:51:02;;;;;;;12.00;3.05;;;12.10;99.90;;;;;;5098251;28;20055;-71
2023/10/12 06:53:33;;;;;;;;;;;12.20;99.90;;;;;;5098604;28;20548;-73
2023/10/12 06:56:13;;;;;;;19.75;4.45;;;12.20;99.90;;;;;;5098363;28;19970;-71
2023/10/12 06:58:38;;;;;;;12.43;3.83;;;12.20;99.90;;;;;;5101540;28;20106;-70
2023/10/12 07:01:26;;;;;;;12.15;3.38;;;12.20;99.90;;;;;;5116509;28;20071;-70
2023/10/12 07:03:53;;;;;;;13.35;2.97;;;12.30;99.90;;;;;;5067129;28;20484;-72
2023/10/12 07:06:19;;;;;;;13.80;3.42;;;12.30;99.90;;;;;;5115825;28;20045;-71
2023/10/12 07:08:50;;;;;;;11.60;2.75;;;12.40;99.90;;;;;;5080680;28;20047;-70
2023/10/12 07:11:20;;;;;;;13.35;3.47;;;12.50;99.90;;;;;;5097564;28;20397;-70
2023/10/12 07:13:46;;;;;;;10.35;3.25;;;12.60;99.90;;;;;;5081031;28;20104;-71
2023/10/12 07:16:15;;;;;;;9.18;2.88;;;12.80;99.90;;;;;;5115558;28;20043;-71
2023/10/12 07:18:44;;;;;;;11.07;2.90;;;13.10;99.90;;;;;;5097334;28;20404;-69
2023/10/12 07:21:21;;;;;;;10.93;2.28;;;13.40;99.90;;;;;;5097775;28;20184;-71
2023/10/12 07:23:52;;;;;;;9.50;2.53;;;14.20;99.90;;;;;;5097356;28;20071;-70
2023/10/12 07:26:23;;;;;;;15.48;2.67;;;15.30;99.90;;;;;;5097250;28;20054;-70
2023/10/12 07:28:50;;;;;;;10.23;2.60;;;16.30;99.90;;;;;;5115077;28;20180;-71
2023/10/12 07:39:20;;;;;;;7.25;2.33;;;19.40;99.90;;;;;;5097399;28;20142;-71
2023/10/12 07:42:12;;;;;;;13.40;2.42;;;19.80;99.90;;;;;;5096863;28;20082;-71
2023/10/12 07:44:42;;;;;;;13.38;2.70;;;20.10;99.90;;;;;;5096011;28;20397;-70
2023/10/12 07:47:18;;;;;;;10.23;2.20;;;20.60;99.90;;;;;;5092732;28;20106;-71
2023/10/12 07:49:49;;;;;;;11.02;2.67;;;21.20;99.90;;;;;;5093257;28;20088;-70
2023/10/12 07:57:19;;;;;;;8.43;2.30;;;21.20;99.90;;;;;;5093032;28;20378;-70
2023/10/12 08:02:42;;;;;;;10.35;2.60;;;20.30;99.90;;;;;;5093365;28;20044;-68
2023/10/12 08:10:59;;;;;;;9.13;2.50;;;18.70;99.90;;;;;;5094129;28;20099;-68
2023/10/12 08:26:47;;;;;;;11.57;2.55;;;17.80;99.90;;;;;;5093666;28;20048;-68
2023/10/12 08:32:08;;;;;;;8.70;2.28;;;17.70;99.90;;;;;;5093403;28;20406;-68
2023/10/12 08:37:20;;;;;;;11.27;2.55;;;17.30;99.90;;;;;;5093231;28;20027;-67
2023/10/12 08:39:50;;;;;;;11.20;2.40;;;17.10;99.90;;;;;;5093305;28;20191;-68
2023/10/12 08:45:12;;;;;;;8.57;2.25;;;16.90;99.90;;;;;;5092186;28;20139;-67
2023/10/12 08:50:47;;;;;;;12.00;2.85;;;16.70;99.90;;;;;;5095058;28;20187;-68
2023/10/12 08:52:59;;;;;;;8.55;2.28;;;16.60;99.90;;;;;;5112869;28;20063;-68
2023/10/12 08:55:31;;;;;;;9.90;2.85;;;16.50;99.90;;;;;;5095714;28;20074;-67
2023/10/12 08:58:11;;;;;;;13.80;2.70;;;16.40;99.90;;;;;;5095440;28;20051;-67
2023/10/12 09:00:42;;;;;;;15.77;2.35;;;16.30;99.90;;;;;;5113712;28;20040;-68
2023/10/12 09:05:51;;;;;;;10.57;2.60;;;16.20;99.90;;;;;;5113300;28;20050;-76
2023/10/12 09:13:46;;;;;;;13.30;2.97;;;16.20;99.90;;;;;;5113763;28;20051;-68
2023/10/12 09:16:14;;;;;;;9.88;2.25;;;16.30;99.90;;;;;;5112992;28;20097;-68
2023/10/12 09:18:47;;;;;;;10.68;2.20;;;16.30;99.90;;;;;;5077875;28;20051;-68
2023/10/12 09:26:37;;;;;;;11.15;2.03;;;16.50;99.90;;;;;;5112872;28;20047;-73
2023/10/12 09:36:55;;;;;;;24.88;5.88;;;16.60;99.90;;;;;;5112755;28;20093;-66
2023/10/12 09:39:27;;;;;;;10.55;2.30;;;16.70;99.90;;;;;;5112863;28;20052;-67
2023/10/12 09:41:59;;;;;;;10.32;2.58;;;16.60;99.90;;;;;;5112534;28;20052;-67
2023/10/12 09:44:26;;;;;;;12.25;2.35;;;16.60;99.90;;;;;;5112983;28;20039;-67
2023/10/12 09:46:56;;;;;;;10.10;1.92;;;16.40;99.90;;;;;;5112257;28;20075;-76
2023/10/12 09:49:27;;;;;;;8.93;2.22;;;16.30;99.90;;;;;;5112635;28;20100;-66
2023/10/12 09:52:04;;;;;;;13.80;2.20;;;16.30;99.90;;;;;;5094114;28;20503;-75
2023/10/12 09:54:57;;;;;;;11.82;2.30;;;16.40;99.90;;;;;;5112507;28;20458;-67
2023/10/12 09:57:27;;;;;;;11.30;2.20;;;16.50;99.90;;;;;;5112582;28;20048;-67
2023/10/12 09:59:59;;;;;;;9.98;2.55;;;16.60;99.90;;;;;;5112088;28;20517;-77
2023/10/12 10:02:28;;;;;;;8.20;2.10;;;16.60;99.90;;;;;;5112828;28;20054;-67
2023/10/12 10:08:20;;;;;;;10.05;2.08;;;16.70;99.90;;;;;;5072883;28;20134;-66
2023/10/12 10:10:48;;;;;;;12.80;2.58;;;16.70;99.90;;;;;;5061471;28;20064;-66
2023/10/12 10:13:37;;;;;;;8.00;2.30;;;16.70;99.90;;;;;;5112143;28;20055;-65
2023/10/12 10:16:08;;;;;;;8.10;1.80;;;16.80;99.90;;;;;;5111968;28;20053;-66
2023/10/12 10:18:48;;;;;;;9.57;2.03;;;16.80;99.90;;;;;;5112300;28;20052;-70
2023/10/12 10:21:22;;;;;;;12.38;2.33;;;16.80;99.90;;;;;;5112112;28;20040;-67
2023/10/12 10:23:52;;;;;;;9.00;1.92;;;16.70;99.90;;;;;;5112113;28;20516;-71
2023/10/12 10:26:31;;;;;;;9.45;2.28;;;16.60;99.90;;;;;;5112126;28;20070;-67
2023/10/12 10:29:04;;;;;;;11.55;1.83;;;16.50;99.90;;;;;;5112203;28;20052;-76
2023/10/12 10:31:41;;;;;;;9.35;1.73;;;16.60;99.90;;;;;;5112250;28;20044;-66
2023/10/12 10:34:10;;;;;;;6.30;1.80;;;16.70;99.90;;;;;;5111992;28;20043;-66
2023/10/12 10:36:36;;;;;;;10.13;2.05;;;16.80;99.90;;;;;;5112330;28;20097;-67
2023/10/12 10:44:16;;;;;;;7.03;1.92;;;17.10;99.90;;;;;;5111587;28;20060;-67
2023/10/12 10:46:47;;;;;;;8.50;2.33;;;17.20;99.90;;;;;;5095323;28;20446;-67
2023/10/12 10:49:16;;;;;;;9.85;2.13;;;17.20;99.90;;;;;;5097561;28;20047;-67
2023/10/12 10:51:48;;;;;;;9.77;2.22;;;17.10;99.90;;;;;;5115630;28;20488;-66
2023/10/12 10:54:18;;;;;;;9.88;2.03;;;17.00;99.90;;;;;;5115398;28;20040;-66
2023/10/12 10:56:48;;;;;;;7.38;2.00;;;17.00;99.90;;;;;;5115910;28;20044;-67
2023/10/12 10:59:18;;;;;;;8.98;2.33;;;16.90;99.90;;;;;;5115778;28;20043;-67
2023/10/12 11:01:50;;;;;;;8.60;2.03;;;16.90;99.90;;;;;;5116084;28;20055;-67
2023/10/12 11:07:03;;;;;;;11.73;1.98;;;17.00;99.90;;;;;;5115908;28;20430;-66
2023/10/12 11:10:19;;;;;;;11.95;2.17;;;17.00;99.90;;;;;;5115544;28;20046;-67
2023/10/12 11:12:17;;;;;;;11.35;1.98;;;17.00;99.90;;;;;;5089651;28;20062;-66
2023/10/12 11:14:52;;;;;;;9.85;2.25;;;17.10;99.90;;;;;;5097492;28;20049;-66
2023/10/12 11:17:22;;;;;;;7.82;2.17;;;17.10;99.90;;;;;;5081243;28;20087;-68
2023/10/12 11:19:50;;;;;;;10.05;2.53;;;17.10;99.90;;;;;;5115234;28;20044;-67
2023/10/12 11:22:17;;;;;;;8.25;1.80;;;17.10;99.90;;;;;;5079950;28;20397;-66
2023/10/12 11:24:50;;;;;;;6.70;1.90;;;17.10;99.90;;;;;;5115372;28;20377;-66
2023/10/12 11:27:33;;;;;;;11.00;2.35;;;17.10;99.90;;;;;;5114852;28;20043;-67
2023/10/12 11:30:12;;;;;;;9.45;1.90;;;17.00;99.90;;;;;;5114848;28;20081;-67
2023/10/12 11:32:54;;;;;;;7.47;2.08;;;17.10;99.90;;;;;;5115267;28;20086;-67
2023/10/12 11:35:33;;;;;;;9.82;1.95;;;17.00;99.90;;;;;;5079979;28;20126;-67
2023/10/12 11:38:03;;;;;;;13.18;2.97;;;16.90;99.90;;;;;;5115045;28;20457;-66
2023/10/12 11:40:30;;;;;;;10.35;2.10;;;17.00;99.90;;;;;;5114607;28;20086;-67
2023/10/12 11:42:57;;;;;;;11.73;2.38;;;17.00;99.90;;;;;;5096837;28;20126;-68
2023/10/12 11:45:32;;;;;;;13.73;2.53;;;17.10;99.90;;;;;;5096363;28;20054;-67
2023/10/12 11:48:16;;;;;;;8.20;1.98;;;17.10;99.90;;;;;;5114841;28;20048;-67
2023/10/12 11:50:45;;;;;;;9.30;2.03;;;17.10;99.90;;;;;;5079977;28;20058;-66
2023/10/12 11:53:14;;;;;;;10.40;2.45;;;17.10;99.90;;;;;;5114411;28;20049;-68
2023/10/12 11:55:40;;;;;;;15.45;2.10;;;17.00;99.90;;;;;;5114887;28;20047;-68
2023/10/12 11:58:07;;;;;;;10.13;2.30;;;17.10;99.90;;;;;;5113348;28;20044;-67
2023/10/12 12:00:37;;;;;;;13.55;2.53;;;17.10;99.90;;;;;;5114228;28;20048;-67
2023/10/12 12:03:08;;;;;;;10.90;1.98;;;17.10;99.90;;;;;;5114611;28;20043;-67
2023/10/12 12:05:36;;;;;;;5.00;1.67;;;17.00;99.90;;;;;;5114299;28;20070;-68
2023/10/12 12:08:13;;;;;;;11.88;2.10;;;17.10;99.90;;;;;;5114264;28;20048;-66
2023/10/12 12:13:08;;;;;;;11.07;2.10;;;17.00;99.90;;;;;;5114044;28;20056;-67
2023/10/12 12:15:35;;;;;;;10.25;2.30;;;17.00;99.90;;;;;;5095642;28;20393;-67
2023/10/12 12:18:05;;;;;;;7.50;2.03;;;17.00;99.90;;;;;;5114046;28;20054;-67
2023/10/12 12:20:39;;;;;;;7.15;1.52;;;17.10;99.90;;;;;;5095776;28;20055;-66
2023/10/12 12:23:05;;;;;;;9.93;2.65;;;17.00;99.90;;;;;;5096081;28;20116;-68
2023/10/12 12:25:32;;;;;;;11.32;2.40;;;16.90;99.90;;;;;;5095320;28;20520;-68
2023/10/12 12:28:04;;;;;;;9.02;2.10;;;17.00;99.90;;;;;;5078783;28;20047;-68
2023/10/12 12:30:35;;;;;;;6.82;2.10;;;17.10;99.90;;;;;;5113685;28;20096;-67
2023/10/12 12:33:01;;;;;;;7.97;2.30;;;17.10;99.90;;;;;;5095966;28;20040;-68
2023/10/12 12:35:28;;;;;;;9.63;2.13;;;17.10;99.90;;;;;;5113718;28;20067;-67
2023/10/12 12:38:05;;;;;;;7.97;1.90;;;17.10;99.90;;;;;;5095675;28;20107;-67
2023/10/12 12:40:42;;;;;;;6.55;1.90;;;17.10;99.90;;;;;;5113447;28;20142;-67
2023/10/12 12:43:10;;;;;;;8.38;2.28;;;17.10;99.90;;;;;;5113969;28;20048;-68
2023/10/12 12:45:36;;;;;;;6.10;2.10;;;17.00;99.90;;;;;;5061610;28;20073;-66
2023/10/12 12:48:05;;;;;;;8.55;2.20;;;17.00;99.90;;;;;;5113477;28;20096;-67
2023/10/12 12:50:31;;;;;;;9.13;2.30;;;17.00;99.90;;;;;;5095057;28;20472;-67
2023/10/12 12:52:57;;;;;;;11.38;1.85;;;17.00;99.90;;;;;;5113375;28;20131;-68
2023/10/12 12:55:27;;;;;;;7.60;1.90;;;17.00;99.90;;;;;;5113172;28;20104;-67
2023/10/12 12:57:58;;;;;;;8.88;1.95;;;17.10;99.90;;;;;;5113395;28;20043;-66
2023/10/12 13:00:25;;;;;;;5.82;1.60;;;17.10;99.90;;;;;;5112952;28;20491;-67
2023/10/12 13:02:50;;;;;;;9.25;2.00;;;17.00;99.90;;;;;;5095172;28;20079;-67
2023/10/12 13:05:16;;;;;;;8.85;1.88;;;17.00;99.90;;;;;;5095358;28;20079;-66
2023/10/12 13:07:45;;;;;;;10.13;2.08;;;17.00;99.90;;;;;;5094532;28;20376;-67
2023/10/12 13:10:11;;;;;;;11.20;2.65;;;17.00;99.90;;;;;;5113026;28;20044;-67
2023/10/12 13:12:40;;;;;;;11.30;2.05;;;16.90;99.90;;;;;;5094941;28;20051;-67
2023/10/12 13:15:09;;;;;;;5.65;1.90;;;16.90;99.90;;;;;;5113140;28;20054;-68
2023/10/12 13:17:39;;;;;;;7.32;1.70;;;16.90;99.90;;;;;;5094903;28;20184;-66
2023/10/12 13:20:06;;;;;;;10.55;2.30;;;16.90;99.90;;;;;;5113161;28;20058;-67
2023/10/12 13:22:33;;;;;;;7.93;2.05;;;16.90;99.90;;;;;;5078029;28;20485;-66
2023/10/12 13:24:59;;;;;;;10.43;2.08;;;16.90;99.90;;;;;;5095025;28;20055;-67
2023/10/12 13:27:27;;;;;;;8.60;2.00;;;16.80;99.90;;;;;;5094611;28;20114;-67
2023/10/12 13:30:09;;;;;;;7.57;1.77;;;16.80;99.90;;;;;;5112998;28;20056;-67
2023/10/12 13:32:36;;;;;;;9.95;1.83;;;16.80;99.90;;;;;;5112934;28;20043;-67
2023/10/12 13:35:17;;;;;;;7.78;2.10;;;16.80;99.90;;;;;;5095261;28;20120;-68
2023/10/12 13:37:51;;;;;;;9.77;1.90;;;16.70;99.90;;;;;;5094615;28;20050;-66
2023/10/12 13:40:17;;;;;;;9.05;2.38;;;16.80;99.90;;;;;;5112786;28;20054;-68
2023/10/12 13:42:43;;;;;;;7.10;2.15;;;16.70;99.90;;;;;;5112631;28;20661;-67
2023/10/12 13:45:12;;;;;;;8.88;1.80;;;16.80;99.90;;;;;;5112809;28;20047;-67
2023/10/12 13:47:40;;;;;;;7.55;1.85;;;16.70;99.90;;;;;;5077863;28;20093;-66
2023/10/12 13:50:10;;;;;;;8.50;2.20;;;16.80;99.90;;;;;;5094591;28;20058;-67
2023/10/12 13:52:37;;;;;;;14.35;2.03;;;16.70;99.90;;;;;;5112323;28;20047;-67
2023/10/12 13:55:11;;;;;;;10.63;2.08;;;16.70;99.90;;;;;;5077620;28;20576;-67
2023/10/12 13:57:50;;;;;;;9.43;3.10;;;16.70;99.90;;;;;;5112350;28;20366;-67
2023/10/12 14:00:25;;;;;;;11.70;2.65;;;16.60;99.90;;;;;;5112584;28;20126;-66
2023/10/12 14:02:59;;;;;;;8.68;1.85;;;16.60;99.90;;;;;;5112428;28;20122;-67
2023/10/12 14:05:27;;;;;;;7.63;1.92;;;16.60;99.90;;;;;;5077878;28;20058;-66
2023/10/12 14:08:00;;;;;;;9.70;2.22;;;16.60;99.90;;;;;;5112497;28;20043;-66
2023/10/12 14:10:26;;;;;;;13.90;2.28;;;16.60;99.90;;;;;;5112565;28;20067;-77
2023/10/12 14:12:56;;;;;;;6.57;1.92;;;16.60;99.90;;;;;;5094439;28;20055;-68
2023/10/12 14:15:27;;;;;;;13.25;2.17;;;16.60;99.90;;;;;;5094108;28;20046;-68
2023/10/12 14:17:56;;;;;;;7.65;1.83;;;16.50;99.90;;;;;;5112516;28;20044;-67
2023/10/12 14:20:28;;;;;;;10.07;2.60;;;16.60;99.90;;;;;;5112430;28;20039;-67
2023/10/12 14:22:58;;;;;;;9.75;1.77;;;16.60;99.90;;;;;;5098386;28;20202;-67
2023/10/12 14:25:27;;;;;;;7.22;2.30;;;16.60;99.90;;;;;;5116510;28;20048;-67
2023/10/12 14:27:54;;;;;;;13.32;2.67;;;16.50;99.90;;;;;;5097812;28;20097;-69
2023/10/12 14:30:26;;;;;;;12.38;2.60;;;16.50;99.90;;;;;;5116483;28;20048;-67
2023/10/12 14:32:55;;;;;;;7.50;2.15;;;16.40;99.90;;;;;;5099332;28;20044;-67
2023/10/12 14:35:20;;;;;;;10.23;2.00;;;16.40;99.90;;;;;;5098185;28;20113;-66
2023/10/12 14:37:46;;;;;;;8.40;2.20;;;16.30;99.90;;;;;;5098033;28;20047;-66
2023/10/12 14:40:18;;;;;;;7.80;2.13;;;16.30;99.90;;;;;;5098051;28;20051;-67
2023/10/12 14:42:44;;;;;;;9.82;1.63;;;16.30;99.90;;;;;;5097629;28;20111;-67
2023/10/12 14:45:12;;;;;;;9.65;2.58;;;16.20;99.90;;;;;;5081351;28;20052;-66
2023/10/12 14:47:38;;;;;;;9.57;2.20;;;15.90;99.90;;;;;;5096998;28;20132;-67
2023/10/12 14:50:05;;;;;;;9.40;2.28;;;16.00;99.90;;;;;;5097991;28;20051;-66
2023/10/12 14:52:38;;;;;;;11.15;2.58;;;15.90;99.90;;;;;;5115844;28;20184;-75
2023/10/12 14:55:11;;;;;;;9.70;1.98;;;15.70;99.90;;;;;;5116200;28;20055;-66
2023/10/12 14:57:38;;;;;;;11.52;1.80;;;15.70;99.90;;;;;;5097488;28;20087;-67
2023/10/12 15:00:22;;;;;;;10.73;2.20;;;15.60;99.90;;;;;;5116067;28;20100;-67
2023/10/12 15:02:57;;;;;;;10.48;2.90;;;15.60;99.90;;;;;;5097352;28;20044;-67
2023/10/12 15:05:27;;;;;;;7.50;2.25;;;15.40;99.90;;;;;;5097842;28;20120;-67
2023/10/12 15:07:57;;;;;;;8.52;2.55;;;15.30;99.90;;;;;;5096897;28;20090;-67
2023/10/12 15:10:23;;;;;;;11.43;2.58;;;15.20;99.90;;;;;;5115420;28;20409;-67
2023/10/12 15:12:50;;;;;;;12.75;2.47;;;15.10;99.90;;;;;;5096739;28;20043;-67
2023/10/12 15:15:24;;;;;;;8.80;2.42;;;15.00;99.90;;;;;;5115512;28;20382;-65
2023/10/12 15:17:54;;;;;;;9.98;2.33;;;15.00;99.90;;;;;;5114789;28;20461;-67
2023/10/12 15:20:22;;;;;;;10.88;2.83;;;14.90;99.90;;;;;;5097498;28;20059;-67
2023/10/12 15:22:49;;;;;;;13.15;2.97;;;14.90;99.90;;;;;;5080224;28;20047;-67
2023/10/12 15:25:18;;;;;;;11.68;2.42;;;14.90;99.90;;;;;;5115555;28;20051;-67
2023/10/12 15:27:45;;;;;;;11.90;3.08;;;14.80;99.90;;;;;;5097402;28;20051;-68
2023/10/12 15:30:11;;;;;;;8.73;2.25;;;14.80;99.90;;;;;;5080305;28;20500;-67
2023/10/12 15:32:40;;;;;;;8.18;2.15;;;14.80;99.90;;;;;;5115254;28;20048;-73